Virginiborg — PBDL — position and weather

sailwx.info

Track history (hours):
 
Tides and Currents Weather Stations Pressure Air Temp Water Temp Dewpoint Dewpoint Depression Visibility Wind Speed Wind Dir Waves Ship Positions

Virginiborg

Last reported at 2014-Oct-28 21:34 UTC. Time now 2014-Nov-01 02:35 UTC.
Position N 46°25' W 072°23'.

Length 132 m; draft 8.1 m.

Type: Cargo ship. MMSI: 244632000.

Date/timePositionNaut miles runAvg speedWind from/ knotsBaromVisibWave heightAir tempDewpointWater temp
2014-Oct-28 21:34N 46°25' W 072°23'1212.3
2014-Oct-28 20:33N 46°17' W 072°37'1313.0
2014-Oct-28 19:33N 46°11' W 072°54'2612.8
2014-Oct-28 17:33N 45°51' W 073°16'1413.9
2014-Oct-28 16:33N 45°40' W 073°28'5 5.1
2014-Oct-28 15:33N 45°35' W 073°30'0 0.0
2014-Oct-28 14:33N 45°35' W 073°30'0 0.0
2014-Oct-28 13:32N 45°35' W 073°30'0 0.0
2014-Oct-28 12:32N 45°35' W 073°30'0 0.0
2014-Oct-28 11:31N 45°35' W 073°30'0 0.0
2014-Oct-28 10:31N 45°35' W 073°30'0 0.0
2014-Oct-28 09:34N 45°35' W 073°30'0 0.0
2014-Oct-28 08:30N 45°35' W 073°30'0 0.0
2014-Oct-28 07:33N 45°35' W 073°30'5 5.2
2014-Oct-28 06:33N 45°30' W 073°31'3 2.5
2014-Oct-28 05:33N 45°27' W 073°30'4 3.8
2014-Oct-28 04:33N 45°24' W 073°34'4 3.6
2014-Oct-28 03:33N 45°24' W 073°39'7 7.3
2014-Oct-28 02:33N 45°23' W 073°49'6 5.9
2014-Oct-28 01:33N 45°19' W 073°55'2 2.3
2014-Oct-28 00:33N 45°17' W 073°57'1010.1
2014-Oct-27 23:33N 45°14' W 074°11'1312.7
2014-Oct-27 22:33N 45°08' W 074°27'  
2014-Oct-19 04:08N 45°39' W 084°01'813.8
2014-Oct-19 03:33N 45°42' W 084°11'1313.0
2014-Oct-19 02:33N 45°42' W 084°29'1413.8
2014-Oct-19 01:33N 45°49' W 084°47'1413.8
2014-Oct-19 00:33N 45°51' W 085°06'1414.0
2014-Oct-18 23:33N 45°53' W 085°26'1413.7
2014-Oct-18 22:34N 45°53' W 085°46'  
Track history (hours):
 
Tides and Currents Weather Stations Pressure Air Temp Water Temp Dewpoint Dewpoint Depression Visibility Wind Speed Wind Dir Waves Ship Positions

Virginiborg

Last reported at 2014-Oct-28 21:34 UTC. Time now 2014-Nov-01 02:35 UTC.
Position N 46°25' W 072°23'.

Length 132 m; draft 8.1 m.

Type: Cargo ship. MMSI: 244632000.

Date/timePositionNaut miles runAvg speedWind from/ knotsBaromVisibWave heightAir tempDewpointWater temp
2014-Oct-28 21:34N 46°25' W 072°23'1212.3
2014-Oct-28 20:33N 46°17' W 072°37'1313.0
2014-Oct-28 19:33N 46°11' W 072°54'2612.8
2014-Oct-28 17:33N 45°51' W 073°16'1413.9
2014-Oct-28 16:33N 45°40' W 073°28'5 5.1
2014-Oct-28 15:33N 45°35' W 073°30'0 0.0
2014-Oct-28 14:33N 45°35' W 073°30'0 0.0
2014-Oct-28 13:32N 45°35' W 073°30'0 0.0
2014-Oct-28 12:32N 45°35' W 073°30'0 0.0
2014-Oct-28 11:31N 45°35' W 073°30'0 0.0
2014-Oct-28 10:31N 45°35' W 073°30'0 0.0
2014-Oct-28 09:34N 45°35' W 073°30'0 0.0
2014-Oct-28 08:30N 45°35' W 073°30'0 0.0
2014-Oct-28 07:33N 45°35' W 073°30'5 5.2
2014-Oct-28 06:33N 45°30' W 073°31'3 2.5
2014-Oct-28 05:33N 45°27' W 073°30'4 3.8
2014-Oct-28 04:33N 45°24' W 073°34'4 3.6
2014-Oct-28 03:33N 45°24' W 073°39'7 7.3
2014-Oct-28 02:33N 45°23' W 073°49'6 5.9
2014-Oct-28 01:33N 45°19' W 073°55'2 2.3
2014-Oct-28 00:33N 45°17' W 073°57'1010.1
2014-Oct-27 23:33N 45°14' W 074°11'1312.7
2014-Oct-27 22:33N 45°08' W 074°27'  
2014-Oct-19 04:08N 45°39' W 084°01'813.8
2014-Oct-19 03:33N 45°42' W 084°11'1313.0
2014-Oct-19 02:33N 45°42' W 084°29'1413.8
2014-Oct-19 01:33N 45°49' W 084°47'1413.8
2014-Oct-19 00:33N 45°51' W 085°06'1414.0
2014-Oct-18 23:33N 45°53' W 085°26'1413.7
2014-Oct-18 22:34N 45°53' W 085°46'  

Dump ship's entire track history